sensor_id;sensor_type;location;lat;lon;timestamp;P1;durP1;ratioP1;P2;durP2;ratioP2
66919;SDS011;53831;52.090;17.026;2022-12-20T00:00:35;59.85;;;23.52;;
66919;SDS011;53831;52.090;17.026;2022-12-20T00:01:37;59.45;;;21.55;;
66919;SDS011;53831;52.090;17.026;2022-12-20T00:02:38;58.45;;;22.52;;
66919;SDS011;53831;52.090;17.026;2022-12-20T00:03:38;53.63;;;21.52;;
66919;SDS011;53831;52.090;17.026;2022-12-20T00:04:39;55.10;;;20.05;;
66919;SDS011;53831;52.090;17.026;2022-12-20T00:05:40;56.95;;;20.45;;
66919;SDS011;53831;52.090;17.026;2022-12-20T00:06:41;50.45;;;20.77;;
66919;SDS011;53831;52.090;17.026;2022-12-20T00:07:42;55.58;;;21.10;;
66919;SDS011;53831;52.090;17.026;2022-12-20T00:08:46;55.60;;;20.40;;
66919;SDS011;53831;52.090;17.026;2022-12-20T00:09:51;54.33;;;20.05;;
66919;SDS011;53831;52.090;17.026;2022-12-20T00:10:52;51.72;;;19.75;;
66919;SDS011;53831;52.090;17.026;2022-12-20T00:11:53;56.25;;;19.65;;
66919;SDS011;53831;52.090;17.026;2022-12-20T00:12:54;49.90;;;20.33;;
66919;SDS011;53831;52.090;17.026;2022-12-20T00:13:55;48.97;;;17.30;;
66919;SDS011;53831;52.090;17.026;2022-12-20T00:14:56;55.92;;;21.73;;
66919;SDS011;53831;52.090;17.026;2022-12-20T00:16:07;46.53;;;18.35;;
66919;SDS011;53831;52.090;17.026;2022-12-20T00:17:12;50.42;;;18.45;;
66919;SDS011;53831;52.090;17.026;2022-12-20T00:18:13;52.05;;;18.98;;
66919;SDS011;53831;52.090;17.026;2022-12-20T00:19:14;46.92;;;18.38;;
66919;SDS011;53831;52.090;17.026;2022-12-20T00:20:15;49.75;;;20.13;;
66919;SDS011;53831;52.090;17.026;2022-12-20T00:21:15;48.58;;;17.90;;
66919;SDS011;53831;52.090;17.026;2022-12-20T00:22:16;53.03;;;18.98;;
66919;SDS011;53831;52.090;17.026;2022-12-20T00:23:17;48.35;;;19.60;;
66919;SDS011;53831;52.090;17.026;2022-12-20T00:24:18;52.45;;;20.10;;
66919;SDS011;53831;52.090;17.026;2022-12-20T00:25:19;51.92;;;19.52;;
66919;SDS011;53831;52.090;17.026;2022-12-20T00:27:22;51.55;;;18.75;;
66919;SDS011;53831;52.090;17.026;2022-12-20T00:28:22;49.40;;;18.23;;
66919;SDS011;53831;52.090;17.026;2022-12-20T00:29:23;48.70;;;18.02;;
66919;SDS011;53831;52.090;17.026;2022-12-20T00:30:24;47.15;;;18.15;;
66919;SDS011;53831;52.090;17.026;2022-12-20T00:31:25;52.47;;;18.80;;
66919;SDS011;53831;52.090;17.026;2022-12-20T00:32:27;49.22;;;18.60;;
66919;SDS011;53831;52.090;17.026;2022-12-20T00:33:28;51.47;;;19.38;;
66919;SDS011;53831;52.090;17.026;2022-12-20T00:35:29;43.70;;;17.80;;
66919;SDS011;53831;52.090;17.026;2022-12-20T00:36:31;48.03;;;18.55;;
66919;SDS011;53831;52.090;17.026;2022-12-20T00:37:33;49.72;;;18.45;;
66919;SDS011;53831;52.090;17.026;2022-12-20T00:38:34;52.03;;;19.17;;
66919;SDS011;53831;52.090;17.026;2022-12-20T00:40:35;49.97;;;18.40;;
66919;SDS011;53831;52.090;17.026;2022-12-20T00:41:36;55.47;;;18.50;;
66919;SDS011;53831;52.090;17.026;2022-12-20T00:42:37;51.55;;;18.33;;
66919;SDS011;53831;52.090;17.026;2022-12-20T00:43:38;53.38;;;19.17;;
66919;SDS011;53831;52.090;17.026;2022-12-20T00:44:39;49.40;;;19.63;;
66919;SDS011;53831;52.090;17.026;2022-12-20T00:45:40;47.22;;;17.50;;
66919;SDS011;53831;52.090;17.026;2022-12-20T00:46:41;49.67;;;19.20;;
66919;SDS011;53831;52.090;17.026;2022-12-20T00:47:43;49.08;;;17.67;;
66919;SDS011;53831;52.090;17.026;2022-12-20T00:48:44;52.13;;;18.65;;
66919;SDS011;53831;52.090;17.026;2022-12-20T00:49:45;55.65;;;19.73;;
66919;SDS011;53831;52.090;17.026;2022-12-20T00:50:46;52.13;;;19.48;;
66919;SDS011;53831;52.090;17.026;2022-12-20T00:51:46;49.28;;;21.00;;
66919;SDS011;53831;52.090;17.026;2022-12-20T00:52:47;57.40;;;21.73;;
66919;SDS011;53831;52.090;17.026;2022-12-20T00:53:48;55.88;;;21.60;;
66919;SDS011;53831;52.090;17.026;2022-12-20T00:54:50;53.80;;;22.05;;
66919;SDS011;53831;52.090;17.026;2022-12-20T00:55:51;52.88;;;19.73;;
66919;SDS011;53831;52.090;17.026;2022-12-20T00:56:52;47.72;;;18.48;;
66919;SDS011;53831;52.090;17.026;2022-12-20T00:57:53;54.08;;;19.83;;
66919;SDS011;53831;52.090;17.026;2022-12-20T00:58:53;50.67;;;18.20;;
66919;SDS011;53831;52.090;17.026;2022-12-20T01:00:55;49.93;;;18.67;;
66919;SDS011;53831;52.090;17.026;2022-12-20T01:02:57;52.10;;;18.53;;
66919;SDS011;53831;52.090;17.026;2022-12-20T01:03:58;46.30;;;17.45;;
66919;SDS011;53831;52.090;17.026;2022-12-20T01:04:59;44.00;;;17.60;;
66919;SDS011;53831;52.090;17.026;2022-12-20T01:06:00;52.95;;;18.88;;
66919;SDS011;53831;52.090;17.026;2022-12-20T01:07:01;49.10;;;18.63;;
66919;SDS011;53831;52.090;17.026;2022-12-20T01:08:02;50.67;;;19.25;;
66919;SDS011;53831;52.090;17.026;2022-12-20T01:09:03;47.80;;;19.27;;
66919;SDS011;53831;52.090;17.026;2022-12-20T01:10:04;55.33;;;21.38;;
66919;SDS011;53831;52.090;17.026;2022-12-20T01:11:13;51.13;;;20.63;;
66919;SDS011;53831;52.090;17.026;2022-12-20T01:12:14;55.47;;;19.63;;
66919;SDS011;53831;52.090;17.026;2022-12-20T01:13:15;50.40;;;19.17;;
66919;SDS011;53831;52.090;17.026;2022-12-20T01:14:16;50.17;;;19.30;;
66919;SDS011;53831;52.090;17.026;2022-12-20T01:15:17;50.30;;;21.25;;
66919;SDS011;53831;52.090;17.026;2022-12-20T01:16:20;54.40;;;20.00;;
66919;SDS011;53831;52.090;17.026;2022-12-20T01:17:22;52.42;;;19.13;;
66919;SDS011;53831;52.090;17.026;2022-12-20T01:18:23;46.85;;;18.02;;
66919;SDS011;53831;52.090;17.026;2022-12-20T01:19:24;51.00;;;17.98;;
66919;SDS011;53831;52.090;17.026;2022-12-20T01:20:25;49.45;;;17.35;;
66919;SDS011;53831;52.090;17.026;2022-12-20T01:21:26;48.75;;;18.25;;
66919;SDS011;53831;52.090;17.026;2022-12-20T01:22:27;51.10;;;19.50;;
66919;SDS011;53831;52.090;17.026;2022-12-20T01:23:28;50.63;;;19.92;;
66919;SDS011;53831;52.090;17.026;2022-12-20T01:25:30;50.33;;;17.50;;
66919;SDS011;53831;52.090;17.026;2022-12-20T01:26:30;48.78;;;17.88;;
66919;SDS011;53831;52.090;17.026;2022-12-20T01:27:31;50.90;;;17.48;;
66919;SDS011;53831;52.090;17.026;2022-12-20T01:28:32;44.20;;;18.10;;
66919;SDS011;53831;52.090;17.026;2022-12-20T01:29:33;48.65;;;17.40;;
66919;SDS011;53831;52.090;17.026;2022-12-20T01:30:33;47.65;;;17.63;;
66919;SDS011;53831;52.090;17.026;2022-12-20T01:31:34;43.42;;;17.27;;
66919;SDS011;53831;52.090;17.026;2022-12-20T01:32:34;46.65;;;18.70;;
66919;SDS011;53831;52.090;17.026;2022-12-20T01:33:35;45.92;;;17.13;;
66919;SDS011;53831;52.090;17.026;2022-12-20T01:34:36;43.40;;;17.10;;
66919;SDS011;53831;52.090;17.026;2022-12-20T01:35:37;41.75;;;16.95;;
66919;SDS011;53831;52.090;17.026;2022-12-20T01:36:38;45.58;;;16.90;;
66919;SDS011;53831;52.090;17.026;2022-12-20T01:37:38;40.03;;;16.75;;
66919;SDS011;53831;52.090;17.026;2022-12-20T01:38:39;47.28;;;17.73;;
66919;SDS011;53831;52.090;17.026;2022-12-20T01:39:40;42.42;;;17.48;;
66919;SDS011;53831;52.090;17.026;2022-12-20T01:40:41;44.53;;;17.25;;
66919;SDS011;53831;52.090;17.026;2022-12-20T01:41:42;43.03;;;16.75;;
66919;SDS011;53831;52.090;17.026;2022-12-20T01:42:44;46.35;;;17.23;;
66919;SDS011;53831;52.090;17.026;2022-12-20T01:43:55;42.30;;;16.50;;
66919;SDS011;53831;52.090;17.026;2022-12-20T01:44:58;39.38;;;16.02;;
66919;SDS011;53831;52.090;17.026;2022-12-20T01:45:59;45.13;;;17.00;;
66919;SDS011;53831;52.090;17.026;2022-12-20T01:46:59;41.03;;;17.52;;
66919;SDS011;53831;52.090;17.026;2022-12-20T01:48:00;45.70;;;18.08;;
66919;SDS011;53831;52.090;17.026;2022-12-20T01:49:05;46.80;;;17.75;;
66919;SDS011;53831;52.090;17.026;2022-12-20T01:50:10;41.28;;;16.90;;
66919;SDS011;53831;52.090;17.026;2022-12-20T01:51:11;38.45;;;16.35;;
66919;SDS011;53831;52.090;17.026;2022-12-20T01:52:16;48.75;;;18.00;;
66919;SDS011;53831;52.090;17.026;2022-12-20T01:53:22;41.38;;;17.25;;
66919;SDS011;53831;52.090;17.026;2022-12-20T01:54:24;41.13;;;16.45;;
66919;SDS011;53831;52.090;17.026;2022-12-20T01:55:37;38.67;;;15.02;;
66919;SDS011;53831;52.090;17.026;2022-12-20T01:56:38;37.90;;;15.27;;
66919;SDS011;53831;52.090;17.026;2022-12-20T01:57:41;40.30;;;16.80;;
66919;SDS011;53831;52.090;17.026;2022-12-20T01:58:53;42.53;;;17.25;;
66919;SDS011;53831;52.090;17.026;2022-12-20T01:59:55;44.47;;;16.08;;
66919;SDS011;53831;52.090;17.026;2022-12-20T02:01:58;39.53;;;15.27;;
66919;SDS011;53831;52.090;17.026;2022-12-20T02:03:03;39.88;;;15.05;;
66919;SDS011;53831;52.090;17.026;2022-12-20T02:04:06;41.85;;;16.23;;
66919;SDS011;53831;52.090;17.026;2022-12-20T02:05:07;39.33;;;15.75;;
66919;SDS011;53831;52.090;17.026;2022-12-20T02:06:13;43.08;;;16.98;;
66919;SDS011;53831;52.090;17.026;2022-12-20T02:07:19;36.65;;;16.13;;
66919;SDS011;53831;52.090;17.026;2022-12-20T02:08:24;44.15;;;17.25;;
66919;SDS011;53831;52.090;17.026;2022-12-20T02:09:25;42.83;;;17.08;;
66919;SDS011;53831;52.090;17.026;2022-12-20T02:13:11;39.55;;;15.25;;
66919;SDS011;53831;52.090;17.026;2022-12-20T02:15:38;39.90;;;16.48;;
66919;SDS011;53831;52.090;17.026;2022-12-20T02:18:34;43.05;;;16.35;;
66919;SDS011;53831;52.090;17.026;2022-12-20T02:20:04;41.55;;;15.50;;
66919;SDS011;53831;52.090;17.026;2022-12-20T02:27:51;40.75;;;15.50;;
66919;SDS011;53831;52.090;17.026;2022-12-20T02:29:20;39.92;;;15.48;;
66919;SDS011;53831;52.090;17.026;2022-12-20T02:30:41;35.95;;;15.02;;
66919;SDS011;53831;52.090;17.026;2022-12-20T02:31:48;35.33;;;14.10;;
66919;SDS011;53831;52.090;17.026;2022-12-20T02:33:04;38.50;;;15.57;;
66919;SDS011;53831;52.090;17.026;2022-12-20T02:34:07;35.90;;;15.55;;
66919;SDS011;53831;52.090;17.026;2022-12-20T02:35:11;40.17;;;15.77;;
66919;SDS011;53831;52.090;17.026;2022-12-20T02:36:15;38.75;;;15.75;;
66919;SDS011;53831;52.090;17.026;2022-12-20T02:37:17;34.60;;;15.48;;
66919;SDS011;53831;52.090;17.026;2022-12-20T02:38:31;37.47;;;14.75;;
66919;SDS011;53831;52.090;17.026;2022-12-20T02:39:35;34.33;;;15.20;;
66919;SDS011;53831;52.090;17.026;2022-12-20T02:40:38;37.10;;;15.98;;
66919;SDS011;53831;52.090;17.026;2022-12-20T02:41:43;36.70;;;15.20;;
66919;SDS011;53831;52.090;17.026;2022-12-20T02:42:50;37.28;;;15.95;;
66919;SDS011;53831;52.090;17.026;2022-12-20T02:44:00;39.55;;;16.08;;
66919;SDS011;53831;52.090;17.026;2022-12-20T02:45:25;42.13;;;17.00;;
66919;SDS011;53831;52.090;17.026;2022-12-20T02:46:29;41.83;;;15.95;;
66919;SDS011;53831;52.090;17.026;2022-12-20T02:47:33;36.75;;;16.02;;
66919;SDS011;53831;52.090;17.026;2022-12-20T02:48:39;38.33;;;16.15;;
66919;SDS011;53831;52.090;17.026;2022-12-20T02:49:41;39.33;;;14.95;;
66919;SDS011;53831;52.090;17.026;2022-12-20T02:50:48;38.45;;;14.77;;
66919;SDS011;53831;52.090;17.026;2022-12-20T02:51:50;36.58;;;14.07;;
66919;SDS011;53831;52.090;17.026;2022-12-20T02:52:53;39.03;;;15.25;;
66919;SDS011;53831;52.090;17.026;2022-12-20T02:53:56;37.97;;;15.13;;
66919;SDS011;53831;52.090;17.026;2022-12-20T02:54:58;35.22;;;14.73;;
66919;SDS011;53831;52.090;17.026;2022-12-20T02:56:10;34.25;;;14.20;;
66919;SDS011;53831;52.090;17.026;2022-12-20T02:57:25;33.85;;;14.60;;
66919;SDS011;53831;52.090;17.026;2022-12-20T02:58:52;37.33;;;14.93;;
66919;SDS011;53831;52.090;17.026;2022-12-20T03:00:04;36.78;;;15.65;;
66919;SDS011;53831;52.090;17.026;2022-12-20T03:01:13;35.60;;;13.90;;
66919;SDS011;53831;52.090;17.026;2022-12-20T03:02:20;40.30;;;16.20;;
66919;SDS011;53831;52.090;17.026;2022-12-20T03:03:22;41.13;;;14.93;;
66919;SDS011;53831;52.090;17.026;2022-12-20T03:04:26;38.75;;;15.60;;
66919;SDS011;53831;52.090;17.026;2022-12-20T03:05:29;38.42;;;15.80;;
66919;SDS011;53831;52.090;17.026;2022-12-20T03:06:33;38.95;;;15.05;;
66919;SDS011;53831;52.090;17.026;2022-12-20T03:07:35;39.10;;;14.93;;
66919;SDS011;53831;52.090;17.026;2022-12-20T03:08:36;36.22;;;14.60;;
66919;SDS011;53831;52.090;17.026;2022-12-20T03:09:38;36.15;;;14.65;;
66919;SDS011;53831;52.090;17.026;2022-12-20T03:10:40;37.67;;;15.27;;
66919;SDS011;53831;52.090;17.026;2022-12-20T03:11:40;30.65;;;13.90;;
66919;SDS011;53831;52.090;17.026;2022-12-20T03:12:41;38.55;;;14.25;;
66919;SDS011;53831;52.090;17.026;2022-12-20T03:13:42;37.97;;;15.00;;
66919;SDS011;53831;52.090;17.026;2022-12-20T03:14:42;31.83;;;14.23;;
66919;SDS011;53831;52.090;17.026;2022-12-20T03:15:45;35.95;;;14.27;;
66919;SDS011;53831;52.090;17.026;2022-12-20T03:16:46;35.08;;;14.38;;
66919;SDS011;53831;52.090;17.026;2022-12-20T03:17:46;36.90;;;14.50;;
66919;SDS011;53831;52.090;17.026;2022-12-20T03:18:47;34.03;;;14.88;;
66919;SDS011;53831;52.090;17.026;2022-12-20T03:19:48;41.90;;;16.88;;
66919;SDS011;53831;52.090;17.026;2022-12-20T03:20:49;32.75;;;13.70;;
66919;SDS011;53831;52.090;17.026;2022-12-20T03:21:50;34.63;;;14.38;;
66919;SDS011;53831;52.090;17.026;2022-12-20T03:22:51;32.72;;;14.15;;
66919;SDS011;53831;52.090;17.026;2022-12-20T03:23:51;34.00;;;13.85;;
66919;SDS011;53831;52.090;17.026;2022-12-20T03:24:52;40.30;;;16.17;;
66919;SDS011;53831;52.090;17.026;2022-12-20T03:25:52;33.38;;;14.25;;
66919;SDS011;53831;52.090;17.026;2022-12-20T03:27:04;33.55;;;14.20;;
66919;SDS011;53831;52.090;17.026;2022-12-20T03:28:04;35.08;;;14.30;;
66919;SDS011;53831;52.090;17.026;2022-12-20T03:29:05;38.95;;;15.40;;
66919;SDS011;53831;52.090;17.026;2022-12-20T03:30:06;36.78;;;15.43;;
66919;SDS011;53831;52.090;17.026;2022-12-20T03:31:10;36.72;;;15.38;;
66919;SDS011;53831;52.090;17.026;2022-12-20T03:32:19;37.80;;;14.55;;
66919;SDS011;53831;52.090;17.026;2022-12-20T03:34:21;34.22;;;14.70;;
66919;SDS011;53831;52.090;17.026;2022-12-20T03:35:22;35.00;;;13.98;;
66919;SDS011;53831;52.090;17.026;2022-12-20T03:36:22;38.40;;;15.27;;
66919;SDS011;53831;52.090;17.026;2022-12-20T03:37:28;33.50;;;13.93;;
66919;SDS011;53831;52.090;17.026;2022-12-20T03:38:28;38.55;;;16.35;;
66919;SDS011;53831;52.090;17.026;2022-12-20T03:39:29;35.10;;;13.88;;
66919;SDS011;53831;52.090;17.026;2022-12-20T03:40:30;34.00;;;14.65;;
66919;SDS011;53831;52.090;17.026;2022-12-20T03:41:30;37.67;;;15.02;;
66919;SDS011;53831;52.090;17.026;2022-12-20T03:42:31;34.58;;;14.57;;
66919;SDS011;53831;52.090;17.026;2022-12-20T03:43:32;35.33;;;14.55;;
66919;SDS011;53831;52.090;17.026;2022-12-20T03:44:33;34.72;;;14.55;;
66919;SDS011;53831;52.090;17.026;2022-12-20T03:45:34;34.45;;;14.35;;
66919;SDS011;53831;52.090;17.026;2022-12-20T03:46:35;36.75;;;14.90;;
66919;SDS011;53831;52.090;17.026;2022-12-20T03:47:38;35.20;;;14.27;;
66919;SDS011;53831;52.090;17.026;2022-12-20T03:48:39;34.28;;;14.43;;
66919;SDS011;53831;52.090;17.026;2022-12-20T03:49:42;37.80;;;16.02;;
66919;SDS011;53831;52.090;17.026;2022-12-20T03:50:42;32.13;;;13.40;;
66919;SDS011;53831;52.090;17.026;2022-12-20T03:51:43;36.28;;;15.43;;
66919;SDS011;53831;52.090;17.026;2022-12-20T03:52:44;35.70;;;14.88;;
66919;SDS011;53831;52.090;17.026;2022-12-20T03:53:45;33.72;;;15.15;;
66919;SDS011;53831;52.090;17.026;2022-12-20T03:54:47;37.08;;;15.10;;
66919;SDS011;53831;52.090;17.026;2022-12-20T03:55:52;35.95;;;15.18;;
66919;SDS011;53831;52.090;17.026;2022-12-20T03:56:52;36.95;;;14.77;;
66919;SDS011;53831;52.090;17.026;2022-12-20T03:57:54;36.22;;;15.30;;
66919;SDS011;53831;52.090;17.026;2022-12-20T03:59:00;38.17;;;15.18;;
66919;SDS011;53831;52.090;17.026;2022-12-20T04:00:01;34.00;;;14.65;;
66919;SDS011;53831;52.090;17.026;2022-12-20T04:02:17;32.15;;;13.25;;
66919;SDS011;53831;52.090;17.026;2022-12-20T04:03:17;34.95;;;14.60;;
66919;SDS011;53831;52.090;17.026;2022-12-20T04:04:18;34.50;;;13.93;;
66919;SDS011;53831;52.090;17.026;2022-12-20T04:05:19;35.80;;;14.40;;
66919;SDS011;53831;52.090;17.026;2022-12-20T04:07:21;35.00;;;13.85;;
66919;SDS011;53831;52.090;17.026;2022-12-20T04:08:22;35.00;;;13.60;;
66919;SDS011;53831;52.090;17.026;2022-12-20T04:09:24;37.78;;;15.05;;
66919;SDS011;53831;52.090;17.026;2022-12-20T04:10:30;36.63;;;14.32;;
66919;SDS011;53831;52.090;17.026;2022-12-20T04:11:30;35.30;;;14.55;;
66919;SDS011;53831;52.090;17.026;2022-12-20T04:12:39;34.88;;;14.57;;
66919;SDS011;53831;52.090;17.026;2022-12-20T04:13:44;36.88;;;14.30;;
66919;SDS011;53831;52.090;17.026;2022-12-20T04:14:49;34.15;;;14.48;;
66919;SDS011;53831;52.090;17.026;2022-12-20T04:15:49;32.17;;;12.93;;
66919;SDS011;53831;52.090;17.026;2022-12-20T04:16:52;32.17;;;13.13;;
66919;SDS011;53831;52.090;17.026;2022-12-20T04:17:56;33.10;;;14.00;;
66919;SDS011;53831;52.090;17.026;2022-12-20T04:18:59;34.15;;;13.57;;
66919;SDS011;53831;52.090;17.026;2022-12-20T04:20:04;35.33;;;14.30;;
66919;SDS011;53831;52.090;17.026;2022-12-20T04:21:27;33.88;;;14.55;;
66919;SDS011;53831;52.090;17.026;2022-12-20T04:23:37;31.35;;;13.45;;
66919;SDS011;53831;52.090;17.026;2022-12-20T04:24:39;35.05;;;13.80;;
66919;SDS011;53831;52.090;17.026;2022-12-20T04:25:56;36.05;;;14.30;;
66919;SDS011;53831;52.090;17.026;2022-12-20T04:26:57;37.17;;;15.55;;
66919;SDS011;53831;52.090;17.026;2022-12-20T04:27:58;42.40;;;17.00;;
66919;SDS011;53831;52.090;17.026;2022-12-20T04:28:58;45.22;;;18.02;;
66919;SDS011;53831;52.090;17.026;2022-12-20T04:30:00;44.72;;;17.50;;
66919;SDS011;53831;52.090;17.026;2022-12-20T04:31:00;43.53;;;17.65;;
66919;SDS011;53831;52.090;17.026;2022-12-20T04:32:03;39.55;;;16.33;;
66919;SDS011;53831;52.090;17.026;2022-12-20T04:33:04;37.67;;;15.77;;
66919;SDS011;53831;52.090;17.026;2022-12-20T04:35:07;34.80;;;14.25;;
66919;SDS011;53831;52.090;17.026;2022-12-20T04:36:13;38.88;;;15.13;;
66919;SDS011;53831;52.090;17.026;2022-12-20T04:37:15;34.70;;;14.27;;
66919;SDS011;53831;52.090;17.026;2022-12-20T04:38:26;34.55;;;13.98;;
66919;SDS011;53831;52.090;17.026;2022-12-20T04:39:27;32.55;;;14.98;;
66919;SDS011;53831;52.090;17.026;2022-12-20T04:40:48;34.33;;;14.70;;
66919;SDS011;53831;52.090;17.026;2022-12-20T04:41:50;35.92;;;14.50;;
66919;SDS011;53831;52.090;17.026;2022-12-20T04:42:50;34.42;;;14.15;;
66919;SDS011;53831;52.090;17.026;2022-12-20T04:43:55;34.45;;;14.75;;
66919;SDS011;53831;52.090;17.026;2022-12-20T04:45:02;35.30;;;16.42;;
66919;SDS011;53831;52.090;17.026;2022-12-20T04:47:05;37.53;;;15.85;;
66919;SDS011;53831;52.090;17.026;2022-12-20T04:48:05;34.78;;;14.60;;
66919;SDS011;53831;52.090;17.026;2022-12-20T04:49:10;35.80;;;15.93;;
66919;SDS011;53831;52.090;17.026;2022-12-20T04:50:14;35.75;;;15.18;;
66919;SDS011;53831;52.090;17.026;2022-12-20T04:51:16;36.13;;;14.60;;
66919;SDS011;53831;52.090;17.026;2022-12-20T04:52:17;38.22;;;16.42;;
66919;SDS011;53831;52.090;17.026;2022-12-20T04:53:36;33.20;;;14.02;;
66919;SDS011;53831;52.090;17.026;2022-12-20T04:54:46;36.63;;;14.68;;
66919;SDS011;53831;52.090;17.026;2022-12-20T04:55:51;34.75;;;14.65;;
66919;SDS011;53831;52.090;17.026;2022-12-20T04:56:52;33.95;;;14.32;;
66919;SDS011;53831;52.090;17.026;2022-12-20T04:57:55;39.55;;;15.50;;
66919;SDS011;53831;52.090;17.026;2022-12-20T04:58:56;34.75;;;13.93;;
66919;SDS011;53831;52.090;17.026;2022-12-20T04:59:58;35.80;;;15.45;;
66919;SDS011;53831;52.090;17.026;2022-12-20T05:00:58;41.00;;;16.30;;
66919;SDS011;53831;52.090;17.026;2022-12-20T05:02:03;36.00;;;15.23;;
66919;SDS011;53831;52.090;17.026;2022-12-20T05:03:20;37.47;;;16.00;;
66919;SDS011;53831;52.090;17.026;2022-12-20T05:04:22;33.58;;;14.45;;
66919;SDS011;53831;52.090;17.026;2022-12-20T05:05:23;33.55;;;15.13;;
66919;SDS011;53831;52.090;17.026;2022-12-20T05:06:27;33.35;;;14.30;;
66919;SDS011;53831;52.090;17.026;2022-12-20T05:07:27;38.38;;;15.70;;
66919;SDS011;53831;52.090;17.026;2022-12-20T05:08:29;34.10;;;14.60;;
66919;SDS011;53831;52.090;17.026;2022-12-20T05:09:30;38.03;;;15.88;;
66919;SDS011;53831;52.090;17.026;2022-12-20T05:10:31;38.15;;;15.27;;
66919;SDS011;53831;52.090;17.026;2022-12-20T05:11:34;32.83;;;14.25;;
66919;SDS011;53831;52.090;17.026;2022-12-20T05:12:38;33.78;;;13.68;;
66919;SDS011;53831;52.090;17.026;2022-12-20T05:13:40;34.38;;;15.70;;
66919;SDS011;53831;52.090;17.026;2022-12-20T05:14:41;36.42;;;15.70;;
66919;SDS011;53831;52.090;17.026;2022-12-20T05:15:43;34.25;;;14.80;;
66919;SDS011;53831;52.090;17.026;2022-12-20T05:16:46;35.28;;;15.38;;
66919;SDS011;53831;52.090;17.026;2022-12-20T05:17:47;37.08;;;13.88;;
66919;SDS011;53831;52.090;17.026;2022-12-20T05:18:47;36.10;;;15.25;;
66919;SDS011;53831;52.090;17.026;2022-12-20T05:20:50;34.63;;;14.63;;
66919;SDS011;53831;52.090;17.026;2022-12-20T05:22:11;37.38;;;16.33;;
66919;SDS011;53831;52.090;17.026;2022-12-20T05:23:40;38.38;;;15.02;;
66919;SDS011;53831;52.090;17.026;2022-12-20T05:25:01;38.33;;;15.60;;
66919;SDS011;53831;52.090;17.026;2022-12-20T05:26:23;33.92;;;13.75;;
66919;SDS011;53831;52.090;17.026;2022-12-20T05:27:25;38.72;;;14.65;;
66919;SDS011;53831;52.090;17.026;2022-12-20T05:28:26;36.90;;;14.55;;
66919;SDS011;53831;52.090;17.026;2022-12-20T05:29:27;33.97;;;13.98;;
66919;SDS011;53831;52.090;17.026;2022-12-20T05:30:29;34.95;;;14.40;;
66919;SDS011;53831;52.090;17.026;2022-12-20T05:31:29;38.67;;;15.50;;
66919;SDS011;53831;52.090;17.026;2022-12-20T05:32:31;35.60;;;15.07;;
66919;SDS011;53831;52.090;17.026;2022-12-20T05:33:32;35.63;;;14.65;;
66919;SDS011;53831;52.090;17.026;2022-12-20T05:34:34;36.28;;;15.10;;
66919;SDS011;53831;52.090;17.026;2022-12-20T05:35:34;37.00;;;15.90;;
66919;SDS011;53831;52.090;17.026;2022-12-20T05:36:40;33.05;;;14.95;;
66919;SDS011;53831;52.090;17.026;2022-12-20T05:37:41;37.63;;;14.98;;
66919;SDS011;53831;52.090;17.026;2022-12-20T05:38:48;39.20;;;16.23;;
66919;SDS011;53831;52.090;17.026;2022-12-20T05:39:52;36.33;;;15.57;;
66919;SDS011;53831;52.090;17.026;2022-12-20T05:40:55;34.60;;;15.38;;
66919;SDS011;53831;52.090;17.026;2022-12-20T05:41:56;40.17;;;15.60;;
66919;SDS011;53831;52.090;17.026;2022-12-20T05:42:58;35.58;;;15.77;;
66919;SDS011;53831;52.090;17.026;2022-12-20T05:44:08;41.13;;;16.77;;
66919;SDS011;53831;52.090;17.026;2022-12-20T05:45:11;39.25;;;15.70;;
66919;SDS011;53831;52.090;17.026;2022-12-20T05:46:27;36.60;;;16.58;;
66919;SDS011;53831;52.090;17.026;2022-12-20T05:47:33;40.25;;;17.58;;
66919;SDS011;53831;52.090;17.026;2022-12-20T05:48:39;38.50;;;16.73;;
66919;SDS011;53831;52.090;17.026;2022-12-20T05:49:41;41.08;;;16.30;;
66919;SDS011;53831;52.090;17.026;2022-12-20T05:50:44;40.17;;;17.42;;
66919;SDS011;53831;52.090;17.026;2022-12-20T05:52:00;43.90;;;18.33;;
66919;SDS011;53831;52.090;17.026;2022-12-20T05:53:01;44.08;;;18.13;;
66919;SDS011;53831;52.090;17.026;2022-12-20T05:54:02;44.00;;;17.48;;
66919;SDS011;53831;52.090;17.026;2022-12-20T05:55:16;44.35;;;17.52;;
66919;SDS011;53831;52.090;17.026;2022-12-20T05:56:17;45.17;;;18.80;;
66919;SDS011;53831;52.090;17.026;2022-12-20T05:57:17;42.40;;;19.35;;
66919;SDS011;53831;52.090;17.026;2022-12-20T05:58:19;48.20;;;18.90;;
66919;SDS011;53831;52.090;17.026;2022-12-20T05:59:26;42.67;;;17.90;;
66919;SDS011;53831;52.090;17.026;2022-12-20T06:00:28;42.65;;;17.80;;
66919;SDS011;53831;52.090;17.026;2022-12-20T06:01:28;38.72;;;15.68;;
66919;SDS011;53831;52.090;17.026;2022-12-20T06:02:32;44.97;;;17.20;;
66919;SDS011;53831;52.090;17.026;2022-12-20T06:03:37;39.50;;;15.63;;
66919;SDS011;53831;52.090;17.026;2022-12-20T06:04:41;41.92;;;16.98;;
66919;SDS011;53831;52.090;17.026;2022-12-20T06:05:51;39.15;;;16.05;;
66919;SDS011;53831;52.090;17.026;2022-12-20T06:06:57;42.33;;;16.50;;
66919;SDS011;53831;52.090;17.026;2022-12-20T06:08:03;42.45;;;17.67;;
66919;SDS011;53831;52.090;17.026;2022-12-20T06:09:04;38.13;;;15.48;;
66919;SDS011;53831;52.090;17.026;2022-12-20T06:10:12;38.90;;;16.80;;
66919;SDS011;53831;52.090;17.026;2022-12-20T06:11:31;40.83;;;17.10;;
66919;SDS011;53831;52.090;17.026;2022-12-20T06:12:36;37.33;;;16.17;;
66919;SDS011;53831;52.090;17.026;2022-12-20T06:13:37;40.80;;;16.25;;
66919;SDS011;53831;52.090;17.026;2022-12-20T06:14:38;42.85;;;18.15;;
66919;SDS011;53831;52.090;17.026;2022-12-20T06:15:39;40.25;;;16.90;;
66919;SDS011;53831;52.090;17.026;2022-12-20T06:16:40;39.20;;;17.17;;
66919;SDS011;53831;52.090;17.026;2022-12-20T06:17:43;42.65;;;17.08;;
66919;SDS011;53831;52.090;17.026;2022-12-20T06:18:44;43.25;;;18.30;;
66919;SDS011;53831;52.090;17.026;2022-12-20T06:19:46;43.95;;;17.45;;
66919;SDS011;53831;52.090;17.026;2022-12-20T06:20:49;44.10;;;18.67;;
66919;SDS011;53831;52.090;17.026;2022-12-20T06:21:55;43.70;;;17.50;;
66919;SDS011;53831;52.090;17.026;2022-12-20T06:23:16;44.40;;;17.42;;
66919;SDS011;53831;52.090;17.026;2022-12-20T06:24:26;43.38;;;18.13;;
66919;SDS011;53831;52.090;17.026;2022-12-20T06:25:27;41.65;;;17.80;;
66919;SDS011;53831;52.090;17.026;2022-12-20T06:26:28;46.40;;;17.48;;
66919;SDS011;53831;52.090;17.026;2022-12-20T06:27:35;48.72;;;19.05;;
66919;SDS011;53831;52.090;17.026;2022-12-20T06:28:54;47.83;;;20.80;;
66919;SDS011;53831;52.090;17.026;2022-12-20T06:30:03;55.25;;;21.48;;
66919;SDS011;53831;52.090;17.026;2022-12-20T06:31:14;49.10;;;21.48;;
66919;SDS011;53831;52.090;17.026;2022-12-20T06:32:17;46.90;;;18.40;;
66919;SDS011;53831;52.090;17.026;2022-12-20T06:33:18;54.15;;;20.27;;
66919;SDS011;53831;52.090;17.026;2022-12-20T06:34:21;54.80;;;20.65;;